< < Back
Terminal Aerodrome Forecast


Current Version              Previous Versions:   1  2  3  4  5  6  7  8  9  

Terminal Aerodrome Forecast

285
FTUS42 KFFC 241737
TAFMCN
TAF
KMCN 241737Z 2418/2518 10007KT P6SM SCT035 BKN090
     FM242000 09007KT P6SM SCT045 SCT070
     FM250100 VRB03KT P6SM FEW060 FEW150
     FM251500 13005KT P6SM SCT040=

Latest METAR

270
SAUS80 KWBC 241700 RRA
MTRMCN
METAR KMCN 241653Z 10008KT 10SM OVC090 31/20 A3023 RMK AO2 SLP233
T03060200


USA.gov is the U.S. government's official web portal to all federal, state and local government web resources and services.